メインページ
METAR-TAF:

METAR-TAF

空港 :

サントペコア国際空港

ルーガンビル, エスピリトゥサント島, バヌアツ

緯度: 15-31S, 経度: 167-13E, 海抜: 41m

現時点の気象観測

当レポートは6時間7分前の09:00(UTC)に作成
北/北西の風 3kt
気温 25°C
湿度 94%
気圧 1010 hPa
視程10km以上
高度1800ftの雲は散在している
高度11000ftの曇り

METAR: NVSS 180900Z 34003KT 9999 SCT018 OVC110 25/24 Q1010 RMK RESH

時間: 02:07 (15:07 UTC)

予報

当レポートは5時間7分前の10:00(UTC)に作成
予報は18日の 12時(UTC)から 19日の 12時(UTC)まで有効
北/北西の風 5kt
視程: 7000m
高度2000ftの雲は散在している
高度10000ftの曇り
高度1000ftの雲はほとんどない
高度1800ftの千切れ雲あり
高度2500ftの雲はほとんどない, 積乱雲.
激しい雷雨, 小雨

TAF: NVSS 181000Z 1812/1912 34005KT 9999 SCT020 OVC100 INTER 1812/1818 7000 -TSRA FEW010 BKN018 FEW025CB

4,000以上の空港の気象観測と天気予報(METAR報とTAF報)

利用可能な観測所は地図上に黄色い丸と赤い丸で示す。

丸の上にカーソルを重ねると観測所名を参照できる。

次にクリックすると気象観測と天気予報を参照できる。

マップの切り替え:黒色「×」印の緑ボタンをクリックして拡大、「-」印の緑ボタンをクリックして縮小、緑色の三角印をクリックして隣りの地図に切り替え


METAR-TAF: